sensor_id;sensor_type;location;lat;lon;timestamp;P1;durP1;ratioP1;P2;durP2;ratioP2
3865;SDS011;1948;53.250;10.412;2023-08-21T00:00:00;10.87;;;4.70;;
3865;SDS011;1948;53.250;10.412;2023-08-21T00:02:27;6.87;;;4.40;;
3865;SDS011;1948;53.250;10.412;2023-08-21T00:04:54;9.10;;;4.33;;
3865;SDS011;1948;53.250;10.412;2023-08-21T00:07:22;8.67;;;4.83;;
3865;SDS011;1948;53.250;10.412;2023-08-21T00:09:50;9.00;;;4.80;;
3865;SDS011;1948;53.250;10.412;2023-08-21T00:12:22;7.10;;;4.10;;
3865;SDS011;1948;53.250;10.412;2023-08-21T00:14:49;15.63;;;5.80;;
3865;SDS011;1948;53.250;10.412;2023-08-21T00:17:18;11.93;;;4.43;;
3865;SDS011;1948;53.250;10.412;2023-08-21T00:19:45;12.20;;;4.73;;
3865;SDS011;1948;53.250;10.412;2023-08-21T00:22:15;12.37;;;5.00;;
3865;SDS011;1948;53.250;10.412;2023-08-21T00:24:47;9.90;;;4.60;;
3865;SDS011;1948;53.250;10.412;2023-08-21T00:27:15;6.80;;;4.50;;
3865;SDS011;1948;53.250;10.412;2023-08-21T00:29:44;10.73;;;4.70;;
3865;SDS011;1948;53.250;10.412;2023-08-21T00:32:13;8.20;;;4.57;;
3865;SDS011;1948;53.250;10.412;2023-08-21T00:34:41;12.20;;;4.93;;
3865;SDS011;1948;53.250;10.412;2023-08-21T00:37:08;10.83;;;4.83;;
3865;SDS011;1948;53.250;10.412;2023-08-21T00:39:35;7.80;;;4.50;;
3865;SDS011;1948;53.250;10.412;2023-08-21T00:42:02;5.23;;;4.57;;
3865;SDS011;1948;53.250;10.412;2023-08-21T00:44:31;9.57;;;5.13;;
3865;SDS011;1948;53.250;10.412;2023-08-21T00:47:01;11.13;;;5.30;;
3865;SDS011;1948;53.250;10.412;2023-08-21T00:49:34;6.10;;;4.77;;
3865;SDS011;1948;53.250;10.412;2023-08-21T00:52:01;8.17;;;5.13;;
3865;SDS011;1948;53.250;10.412;2023-08-21T00:54:31;12.40;;;4.80;;
3865;SDS011;1948;53.250;10.412;2023-08-21T00:56:58;6.47;;;4.47;;
3865;SDS011;1948;53.250;10.412;2023-08-21T00:59:25;6.73;;;4.97;;
3865;SDS011;1948;53.250;10.412;2023-08-21T01:01:53;5.60;;;4.83;;
3865;SDS011;1948;53.250;10.412;2023-08-21T01:04:20;10.87;;;5.33;;
3865;SDS011;1948;53.250;10.412;2023-08-21T01:06:50;11.50;;;4.97;;
3865;SDS011;1948;53.250;10.412;2023-08-21T01:09:30;6.87;;;5.10;;
3865;SDS011;1948;53.250;10.412;2023-08-21T01:12:09;8.90;;;4.23;;
3865;SDS011;1948;53.250;10.412;2023-08-21T01:14:59;7.90;;;4.47;;
3865;SDS011;1948;53.250;10.412;2023-08-21T01:17:29;8.10;;;5.10;;
3865;SDS011;1948;53.250;10.412;2023-08-21T01:19:57;8.57;;;5.27;;
3865;SDS011;1948;53.250;10.412;2023-08-21T01:22:34;6.40;;;4.63;;
3865;SDS011;1948;53.250;10.412;2023-08-21T01:25:07;12.53;;;5.10;;
3865;SDS011;1948;53.250;10.412;2023-08-21T01:27:38;14.87;;;5.17;;
3865;SDS011;1948;53.250;10.412;2023-08-21T01:30:15;9.43;;;5.37;;
3865;SDS011;1948;53.250;10.412;2023-08-21T01:35:24;9.73;;;5.60;;
3865;SDS011;1948;53.250;10.412;2023-08-21T01:37:52;13.77;;;5.73;;
3865;SDS011;1948;53.250;10.412;2023-08-21T01:40:21;5.73;;;5.10;;
3865;SDS011;1948;53.250;10.412;2023-08-21T01:42:52;6.70;;;4.90;;
3865;SDS011;1948;53.250;10.412;2023-08-21T01:45:20;6.37;;;5.23;;
3865;SDS011;1948;53.250;10.412;2023-08-21T01:47:51;7.80;;;4.63;;
3865;SDS011;1948;53.250;10.412;2023-08-21T01:50:20;5.00;;;4.50;;
3865;SDS011;1948;53.250;10.412;2023-08-21T01:52:49;6.00;;;5.30;;
3865;SDS011;1948;53.250;10.412;2023-08-21T01:55:16;12.40;;;5.97;;
3865;SDS011;1948;53.250;10.412;2023-08-21T01:57:43;7.97;;;5.20;;
3865;SDS011;1948;53.250;10.412;2023-08-21T02:00:14;10.17;;;5.40;;
3865;SDS011;1948;53.250;10.412;2023-08-21T02:02:43;17.50;;;5.63;;
3865;SDS011;1948;53.250;10.412;2023-08-21T02:05:10;11.03;;;5.87;;
3865;SDS011;1948;53.250;10.412;2023-08-21T02:07:40;21.00;;;5.40;;
3865;SDS011;1948;53.250;10.412;2023-08-21T02:10:09;11.90;;;5.57;;
3865;SDS011;1948;53.250;10.412;2023-08-21T02:12:40;13.43;;;5.70;;
3865;SDS011;1948;53.250;10.412;2023-08-21T02:15:10;13.77;;;6.00;;
3865;SDS011;1948;53.250;10.412;2023-08-21T02:17:39;9.00;;;5.90;;
3865;SDS011;1948;53.250;10.412;2023-08-21T02:20:09;17.00;;;6.13;;
3865;SDS011;1948;53.250;10.412;2023-08-21T02:22:37;10.40;;;6.10;;
3865;SDS011;1948;53.250;10.412;2023-08-21T02:25:04;10.57;;;5.90;;
3865;SDS011;1948;53.250;10.412;2023-08-21T02:27:32;12.97;;;6.93;;
3865;SDS011;1948;53.250;10.412;2023-08-21T02:30:04;8.30;;;5.80;;
3865;SDS011;1948;53.250;10.412;2023-08-21T02:32:31;19.90;;;6.10;;
3865;SDS011;1948;53.250;10.412;2023-08-21T02:34:59;15.80;;;6.70;;
3865;SDS011;1948;53.250;10.412;2023-08-21T02:37:28;9.13;;;4.83;;
3865;SDS011;1948;53.250;10.412;2023-08-21T02:39:55;15.10;;;5.53;;
3865;SDS011;1948;53.250;10.412;2023-08-21T02:42:22;6.47;;;5.10;;
3865;SDS011;1948;53.250;10.412;2023-08-21T02:44:49;12.83;;;5.57;;
3865;SDS011;1948;53.250;10.412;2023-08-21T02:47:18;33.73;;;8.70;;
3865;SDS011;1948;53.250;10.412;2023-08-21T02:49:48;12.33;;;6.10;;
3865;SDS011;1948;53.250;10.412;2023-08-21T02:52:16;10.70;;;5.00;;
3865;SDS011;1948;53.250;10.412;2023-08-21T02:54:44;9.93;;;4.67;;
3865;SDS011;1948;53.250;10.412;2023-08-21T02:57:15;11.47;;;4.93;;
3865;SDS011;1948;53.250;10.412;2023-08-21T02:59:43;12.60;;;4.73;;
3865;SDS011;1948;53.250;10.412;2023-08-21T03:02:10;7.67;;;4.60;;
3865;SDS011;1948;53.250;10.412;2023-08-21T03:04:37;7.03;;;4.00;;
3865;SDS011;1948;53.250;10.412;2023-08-21T03:07:04;10.73;;;4.60;;
3865;SDS011;1948;53.250;10.412;2023-08-21T03:09:31;9.80;;;4.53;;
3865;SDS011;1948;53.250;10.412;2023-08-21T03:11:58;5.90;;;5.50;;
3865;SDS011;1948;53.250;10.412;2023-08-21T03:14:28;5.13;;;4.60;;
3865;SDS011;1948;53.250;10.412;2023-08-21T03:16:55;7.70;;;4.90;;
3865;SDS011;1948;53.250;10.412;2023-08-21T03:19:22;18.17;;;4.13;;
3865;SDS011;1948;53.250;10.412;2023-08-21T03:21:51;4.83;;;4.43;;
3865;SDS011;1948;53.250;10.412;2023-08-21T03:24:19;9.30;;;4.70;;
3865;SDS011;1948;53.250;10.412;2023-08-21T03:26:46;7.70;;;5.10;;
3865;SDS011;1948;53.250;10.412;2023-08-21T03:29:13;9.73;;;5.80;;
3865;SDS011;1948;53.250;10.412;2023-08-21T03:31:40;10.07;;;4.47;;
3865;SDS011;1948;53.250;10.412;2023-08-21T03:34:07;5.77;;;5.10;;
3865;SDS011;1948;53.250;10.412;2023-08-21T03:36:34;14.83;;;5.87;;
3865;SDS011;1948;53.250;10.412;2023-08-21T03:39:05;6.10;;;4.83;;
3865;SDS011;1948;53.250;10.412;2023-08-21T03:41:32;5.10;;;4.10;;
3865;SDS011;1948;53.250;10.412;2023-08-21T03:43:59;6.27;;;5.10;;
3865;SDS011;1948;53.250;10.412;2023-08-21T03:46:26;11.17;;;6.17;;
3865;SDS011;1948;53.250;10.412;2023-08-21T03:48:53;45.10;;;9.13;;
3865;SDS011;1948;53.250;10.412;2023-08-21T03:51:20;12.50;;;5.60;;
3865;SDS011;1948;53.250;10.412;2023-08-21T03:53:49;15.47;;;5.77;;
3865;SDS011;1948;53.250;10.412;2023-08-21T03:56:16;9.97;;;6.00;;
3865;SDS011;1948;53.250;10.412;2023-08-21T03:58:44;18.93;;;6.30;;
3865;SDS011;1948;53.250;10.412;2023-08-21T04:01:11;29.13;;;7.27;;
3865;SDS011;1948;53.250;10.412;2023-08-21T04:03:38;24.60;;;7.03;;
3865;SDS011;1948;53.250;10.412;2023-08-21T04:06:05;17.87;;;6.07;;
3865;SDS011;1948;53.250;10.412;2023-08-21T04:08:32;8.13;;;5.60;;
3865;SDS011;1948;53.250;10.412;2023-08-21T04:10:59;8.37;;;5.50;;
3865;SDS011;1948;53.250;10.412;2023-08-21T04:13:29;15.50;;;5.50;;
3865;SDS011;1948;53.250;10.412;2023-08-21T04:16:00;16.00;;;6.10;;
3865;SDS011;1948;53.250;10.412;2023-08-21T04:18:27;8.17;;;6.27;;
3865;SDS011;1948;53.250;10.412;2023-08-21T04:21:07;12.67;;;5.67;;
3865;SDS011;1948;53.250;10.412;2023-08-21T04:23:35;12.67;;;6.40;;
3865;SDS011;1948;53.250;10.412;2023-08-21T04:26:03;12.57;;;6.20;;
3865;SDS011;1948;53.250;10.412;2023-08-21T04:28:31;14.67;;;7.13;;
3865;SDS011;1948;53.250;10.412;2023-08-21T04:30:59;13.57;;;6.27;;
3865;SDS011;1948;53.250;10.412;2023-08-21T04:33:27;17.37;;;7.80;;
3865;SDS011;1948;53.250;10.412;2023-08-21T04:35:55;10.67;;;6.97;;
3865;SDS011;1948;53.250;10.412;2023-08-21T04:38:22;26.43;;;7.00;;
3865;SDS011;1948;53.250;10.412;2023-08-21T04:40:50;20.27;;;6.73;;
3865;SDS011;1948;53.250;10.412;2023-08-21T04:43:17;12.67;;;6.43;;
3865;SDS011;1948;53.250;10.412;2023-08-21T04:45:48;14.87;;;6.40;;
3865;SDS011;1948;53.250;10.412;2023-08-21T04:48:17;12.17;;;6.40;;
3865;SDS011;1948;53.250;10.412;2023-08-21T04:50:44;14.93;;;6.07;;
3865;SDS011;1948;53.250;10.412;2023-08-21T04:53:12;24.30;;;7.33;;
3865;SDS011;1948;53.250;10.412;2023-08-21T04:55:42;19.30;;;7.67;;
3865;SDS011;1948;53.250;10.412;2023-08-21T04:58:11;25.90;;;8.03;;
3865;SDS011;1948;53.250;10.412;2023-08-21T05:00:44;23.13;;;8.43;;
3865;SDS011;1948;53.250;10.412;2023-08-21T05:03:12;23.80;;;8.57;;
3865;SDS011;1948;53.250;10.412;2023-08-21T05:05:39;29.10;;;9.03;;
3865;SDS011;1948;53.250;10.412;2023-08-21T05:08:17;21.33;;;8.37;;
3865;SDS011;1948;53.250;10.412;2023-08-21T05:10:44;19.63;;;7.63;;
3865;SDS011;1948;53.250;10.412;2023-08-21T05:13:12;23.90;;;8.17;;
3865;SDS011;1948;53.250;10.412;2023-08-21T05:15:44;16.80;;;7.40;;
3865;SDS011;1948;53.250;10.412;2023-08-21T05:18:11;22.07;;;8.90;;
3865;SDS011;1948;53.250;10.412;2023-08-21T05:20:38;27.70;;;7.30;;
3865;SDS011;1948;53.250;10.412;2023-08-21T05:23:05;16.83;;;7.87;;
3865;SDS011;1948;53.250;10.412;2023-08-21T05:25:35;9.23;;;5.13;;
3865;SDS011;1948;53.250;10.412;2023-08-21T05:28:02;19.93;;;6.47;;
3865;SDS011;1948;53.250;10.412;2023-08-21T05:30:31;11.90;;;6.03;;
3865;SDS011;1948;53.250;10.412;2023-08-21T05:33:02;28.60;;;6.10;;
3865;SDS011;1948;53.250;10.412;2023-08-21T05:35:33;21.07;;;6.60;;
3865;SDS011;1948;53.250;10.412;2023-08-21T05:38:05;28.03;;;5.57;;
3865;SDS011;1948;53.250;10.412;2023-08-21T05:40:32;16.03;;;5.13;;
3865;SDS011;1948;53.250;10.412;2023-08-21T05:42:59;11.93;;;5.27;;
3865;SDS011;1948;53.250;10.412;2023-08-21T05:45:30;10.97;;;4.67;;
3865;SDS011;1948;53.250;10.412;2023-08-21T05:48:01;16.43;;;3.73;;
3865;SDS011;1948;53.250;10.412;2023-08-21T05:50:29;10.80;;;3.83;;
3865;SDS011;1948;53.250;10.412;2023-08-21T05:52:56;10.10;;;5.07;;
3865;SDS011;1948;53.250;10.412;2023-08-21T05:55:24;12.17;;;3.57;;
3865;SDS011;1948;53.250;10.412;2023-08-21T05:57:53;6.77;;;3.10;;
3865;SDS011;1948;53.250;10.412;2023-08-21T06:00:20;8.40;;;3.30;;
3865;SDS011;1948;53.250;10.412;2023-08-21T06:02:49;10.30;;;3.10;;
3865;SDS011;1948;53.250;10.412;2023-08-21T06:05:17;8.53;;;3.10;;
3865;SDS011;1948;53.250;10.412;2023-08-21T06:07:47;15.33;;;2.90;;
3865;SDS011;1948;53.250;10.412;2023-08-21T06:10:14;14.23;;;4.50;;
3865;SDS011;1948;53.250;10.412;2023-08-21T06:12:41;10.60;;;3.53;;
3865;SDS011;1948;53.250;10.412;2023-08-21T06:15:08;8.27;;;3.10;;
3865;SDS011;1948;53.250;10.412;2023-08-21T06:17:37;14.50;;;3.07;;
3865;SDS011;1948;53.250;10.412;2023-08-21T06:20:08;11.07;;;3.40;;
3865;SDS011;1948;53.250;10.412;2023-08-21T06:22:35;15.30;;;3.10;;
3865;SDS011;1948;53.250;10.412;2023-08-21T06:25:04;18.20;;;3.60;;
3865;SDS011;1948;53.250;10.412;2023-08-21T06:27:35;10.80;;;2.90;;
3865;SDS011;1948;53.250;10.412;2023-08-21T06:30:24;14.07;;;3.93;;
3865;SDS011;1948;53.250;10.412;2023-08-21T06:32:53;11.50;;;2.70;;
3865;SDS011;1948;53.250;10.412;2023-08-21T06:35:24;10.43;;;2.80;;
3865;SDS011;1948;53.250;10.412;2023-08-21T06:37:54;21.90;;;3.60;;
3865;SDS011;1948;53.250;10.412;2023-08-21T06:40:21;12.97;;;2.80;;
3865;SDS011;1948;53.250;10.412;2023-08-21T06:42:51;4.90;;;2.60;;
3865;SDS011;1948;53.250;10.412;2023-08-21T06:45:21;18.33;;;3.73;;
3865;SDS011;1948;53.250;10.412;2023-08-21T06:47:48;11.93;;;2.83;;
3865;SDS011;1948;53.250;10.412;2023-08-21T06:50:17;14.53;;;3.07;;
3865;SDS011;1948;53.250;10.412;2023-08-21T06:52:44;11.90;;;3.50;;
3865;SDS011;1948;53.250;10.412;2023-08-21T06:55:18;11.77;;;2.70;;
3865;SDS011;1948;53.250;10.412;2023-08-21T06:57:45;9.73;;;3.20;;
3865;SDS011;1948;53.250;10.412;2023-08-21T07:00:15;15.70;;;2.60;;
3865;SDS011;1948;53.250;10.412;2023-08-21T07:02:42;11.53;;;3.20;;
3865;SDS011;1948;53.250;10.412;2023-08-21T07:05:09;9.17;;;2.77;;
3865;SDS011;1948;53.250;10.412;2023-08-21T07:07:38;14.40;;;2.93;;
3865;SDS011;1948;53.250;10.412;2023-08-21T07:10:05;8.70;;;2.47;;
3865;SDS011;1948;53.250;10.412;2023-08-21T07:12:32;14.00;;;3.10;;
3865;SDS011;1948;53.250;10.412;2023-08-21T07:14:59;19.80;;;3.40;;
3865;SDS011;1948;53.250;10.412;2023-08-21T07:17:29;8.80;;;2.70;;
3865;SDS011;1948;53.250;10.412;2023-08-21T07:19:56;12.00;;;3.03;;
3865;SDS011;1948;53.250;10.412;2023-08-21T07:22:23;18.30;;;3.40;;
3865;SDS011;1948;53.250;10.412;2023-08-21T07:24:55;8.23;;;2.80;;
3865;SDS011;1948;53.250;10.412;2023-08-21T07:27:23;5.63;;;2.70;;
3865;SDS011;1948;53.250;10.412;2023-08-21T07:29:50;11.77;;;3.10;;
3865;SDS011;1948;53.250;10.412;2023-08-21T07:32:17;10.00;;;2.77;;
3865;SDS011;1948;53.250;10.412;2023-08-21T07:34:46;9.97;;;3.13;;
3865;SDS011;1948;53.250;10.412;2023-08-21T07:37:13;13.90;;;3.40;;
3865;SDS011;1948;53.250;10.412;2023-08-21T07:39:40;11.50;;;2.77;;
3865;SDS011;1948;53.250;10.412;2023-08-21T07:42:08;8.83;;;2.73;;
3865;SDS011;1948;53.250;10.412;2023-08-21T07:44:39;7.77;;;3.00;;
3865;SDS011;1948;53.250;10.412;2023-08-21T07:47:06;8.93;;;2.80;;
3865;SDS011;1948;53.250;10.412;2023-08-21T07:49:33;5.23;;;2.67;;
3865;SDS011;1948;53.250;10.412;2023-08-21T07:52:03;15.10;;;3.37;;
3865;SDS011;1948;53.250;10.412;2023-08-21T07:54:32;8.60;;;2.70;;
3865;SDS011;1948;53.250;10.412;2023-08-21T07:57:02;18.80;;;3.67;;
3865;SDS011;1948;53.250;10.412;2023-08-21T07:59:30;14.60;;;4.00;;
3865;SDS011;1948;53.250;10.412;2023-08-21T08:01:57;8.30;;;3.37;;
3865;SDS011;1948;53.250;10.412;2023-08-21T08:04:26;11.20;;;4.20;;
3865;SDS011;1948;53.250;10.412;2023-08-21T08:06:59;7.77;;;3.10;;
3865;SDS011;1948;53.250;10.412;2023-08-21T08:09:26;8.27;;;2.83;;
3865;SDS011;1948;53.250;10.412;2023-08-21T08:11:54;11.70;;;2.67;;
3865;SDS011;1948;53.250;10.412;2023-08-21T08:14:21;21.27;;;3.40;;
3865;SDS011;1948;53.250;10.412;2023-08-21T08:16:48;11.20;;;3.23;;
3865;SDS011;1948;53.250;10.412;2023-08-21T08:19:15;15.80;;;2.90;;
3865;SDS011;1948;53.250;10.412;2023-08-21T08:21:42;13.50;;;2.47;;
3865;SDS011;1948;53.250;10.412;2023-08-21T08:24:09;8.13;;;3.07;;
3865;SDS011;1948;53.250;10.412;2023-08-21T08:26:36;20.30;;;2.93;;
3865;SDS011;1948;53.250;10.412;2023-08-21T08:29:04;15.60;;;2.53;;
3865;SDS011;1948;53.250;10.412;2023-08-21T08:31:33;17.20;;;3.00;;
3865;SDS011;1948;53.250;10.412;2023-08-21T08:34:00;8.57;;;2.70;;
3865;SDS011;1948;53.250;10.412;2023-08-21T08:36:27;18.33;;;2.40;;
3865;SDS011;1948;53.250;10.412;2023-08-21T08:38:54;10.10;;;2.90;;
3865;SDS011;1948;53.250;10.412;2023-08-21T08:41:30;8.00;;;2.30;;
3865;SDS011;1948;53.250;10.412;2023-08-21T08:44:10;8.90;;;3.07;;
3865;SDS011;1948;53.250;10.412;2023-08-21T08:46:42;3.23;;;2.23;;
3865;SDS011;1948;53.250;10.412;2023-08-21T08:49:11;6.17;;;2.57;;
3865;SDS011;1948;53.250;10.412;2023-08-21T08:51:39;6.77;;;2.40;;
3865;SDS011;1948;53.250;10.412;2023-08-21T08:54:08;6.30;;;2.70;;
3865;SDS011;1948;53.250;10.412;2023-08-21T08:56:38;5.40;;;2.13;;
3865;SDS011;1948;53.250;10.412;2023-08-21T08:59:07;7.53;;;2.43;;
3865;SDS011;1948;53.250;10.412;2023-08-21T09:01:35;6.97;;;2.30;;
3865;SDS011;1948;53.250;10.412;2023-08-21T09:04:02;13.77;;;2.30;;
3865;SDS011;1948;53.250;10.412;2023-08-21T09:06:32;7.13;;;2.17;;
3865;SDS011;1948;53.250;10.412;2023-08-21T09:09:02;4.70;;;1.80;;
3865;SDS011;1948;53.250;10.412;2023-08-21T09:11:32;4.70;;;2.37;;
3865;SDS011;1948;53.250;10.412;2023-08-21T09:14:00;5.70;;;2.33;;
3865;SDS011;1948;53.250;10.412;2023-08-21T09:16:27;6.40;;;2.20;;
3865;SDS011;1948;53.250;10.412;2023-08-21T09:18:57;6.33;;;2.00;;
3865;SDS011;1948;53.250;10.412;2023-08-21T09:21:26;5.33;;;2.07;;
3865;SDS011;1948;53.250;10.412;2023-08-21T09:23:59;6.50;;;1.90;;
3865;SDS011;1948;53.250;10.412;2023-08-21T09:26:32;6.33;;;2.00;;
3865;SDS011;1948;53.250;10.412;2023-08-21T09:29:03;11.87;;;3.13;;
3865;SDS011;1948;53.250;10.412;2023-08-21T09:31:32;5.07;;;1.77;;
3865;SDS011;1948;53.250;10.412;2023-08-21T09:34:05;8.33;;;2.00;;
3865;SDS011;1948;53.250;10.412;2023-08-21T09:36:35;5.73;;;2.10;;
3865;SDS011;1948;53.250;10.412;2023-08-21T09:39:05;6.30;;;1.97;;
3865;SDS011;1948;53.250;10.412;2023-08-21T09:41:41;4.70;;;1.87;;
3865;SDS011;1948;53.250;10.412;2023-08-21T09:44:12;6.93;;;2.47;;
3865;SDS011;1948;53.250;10.412;2023-08-21T09:46:41;4.20;;;1.30;;
3865;SDS011;1948;53.250;10.412;2023-08-21T09:49:08;7.03;;;2.10;;
3865;SDS011;1948;53.250;10.412;2023-08-21T09:51:39;6.40;;;2.03;;
3865;SDS011;1948;53.250;10.412;2023-08-21T09:54:11;1.47;;;1.47;;
3865;SDS011;1948;53.250;10.412;2023-08-21T09:56:38;5.97;;;1.83;;
3865;SDS011;1948;53.250;10.412;2023-08-21T09:59:06;2.47;;;2.07;;
3865;SDS011;1948;53.250;10.412;2023-08-21T10:01:36;2.60;;;1.50;;
3865;SDS011;1948;53.250;10.412;2023-08-21T10:04:04;7.40;;;1.80;;
3865;SDS011;1948;53.250;10.412;2023-08-21T10:06:34;4.00;;;1.83;;
3865;SDS011;1948;53.250;10.412;2023-08-21T10:09:04;6.67;;;1.80;;
3865;SDS011;1948;53.250;10.412;2023-08-21T10:11:33;5.33;;;2.10;;
3865;SDS011;1948;53.250;10.412;2023-08-21T10:14:01;7.03;;;2.03;;
3865;SDS011;1948;53.250;10.412;2023-08-21T10:16:28;4.00;;;2.03;;
3865;SDS011;1948;53.250;10.412;2023-08-21T10:19:01;5.67;;;2.03;;
3865;SDS011;1948;53.250;10.412;2023-08-21T10:21:36;3.57;;;1.90;;
3865;SDS011;1948;53.250;10.412;2023-08-21T10:24:06;5.80;;;1.83;;
3865;SDS011;1948;53.250;10.412;2023-08-21T10:26:37;2.70;;;1.50;;
3865;SDS011;1948;53.250;10.412;2023-08-21T10:29:06;2.40;;;1.70;;
3865;SDS011;1948;53.250;10.412;2023-08-21T10:34:05;5.87;;;1.37;;
3865;SDS011;1948;53.250;10.412;2023-08-21T10:39:23;4.50;;;1.83;;
3865;SDS011;1948;53.250;10.412;2023-08-21T10:42:04;1.13;;;1.03;;
3865;SDS011;1948;53.250;10.412;2023-08-21T10:49:57;4.90;;;2.00;;
3865;SDS011;1948;53.250;10.412;2023-08-21T10:52:45;5.30;;;1.60;;
3865;SDS011;1948;53.250;10.412;2023-08-21T10:55:13;2.03;;;1.10;;
3865;SDS011;1948;53.250;10.412;2023-08-21T10:57:42;5.23;;;1.80;;
3865;SDS011;1948;53.250;10.412;2023-08-21T11:00:10;2.93;;;1.60;;
3865;SDS011;1948;53.250;10.412;2023-08-21T11:02:45;2.27;;;1.47;;
3865;SDS011;1948;53.250;10.412;2023-08-21T11:05:15;1.80;;;1.33;;
3865;SDS011;1948;53.250;10.412;2023-08-21T11:10:21;1.90;;;1.43;;
3865;SDS011;1948;53.250;10.412;2023-08-21T11:15:22;1.60;;;1.50;;
3865;SDS011;1948;53.250;10.412;2023-08-21T11:17:53;3.07;;;1.50;;
3865;SDS011;1948;53.250;10.412;2023-08-21T11:20:27;2.10;;;1.33;;
3865;SDS011;1948;53.250;10.412;2023-08-21T11:23:03;9.53;;;1.60;;
3865;SDS011;1948;53.250;10.412;2023-08-21T11:25:34;6.50;;;1.60;;
3865;SDS011;1948;53.250;10.412;2023-08-21T11:28:09;5.23;;;1.80;;
3865;SDS011;1948;53.250;10.412;2023-08-21T11:30:36;1.83;;;1.20;;
3865;SDS011;1948;53.250;10.412;2023-08-21T11:35:40;2.83;;;1.57;;
3865;SDS011;1948;53.250;10.412;2023-08-21T11:38:16;3.77;;;1.40;;
3865;SDS011;1948;53.250;10.412;2023-08-21T11:43:36;2.90;;;2.10;;
3865;SDS011;1948;53.250;10.412;2023-08-21T11:46:08;1.60;;;1.50;;
3865;SDS011;1948;53.250;10.412;2023-08-21T11:48:40;1.50;;;1.40;;
3865;SDS011;1948;53.250;10.412;2023-08-21T11:51:11;1.80;;;1.60;;
3865;SDS011;1948;53.250;10.412;2023-08-21T11:56:11;1.37;;;1.27;;
3865;SDS011;1948;53.250;10.412;2023-08-21T11:58:41;2.40;;;1.30;;
3865;SDS011;1948;53.250;10.412;2023-08-21T12:01:16;1.40;;;1.40;;
3865;SDS011;1948;53.250;10.412;2023-08-21T12:03:44;3.43;;;1.40;;
3865;SDS011;1948;53.250;10.412;2023-08-21T12:06:12;1.13;;;1.13;;
3865;SDS011;1948;53.250;10.412;2023-08-21T12:08:39;4.30;;;1.90;;
3865;SDS011;1948;53.250;10.412;2023-08-21T12:11:09;1.13;;;1.13;;
3865;SDS011;1948;53.250;10.412;2023-08-21T12:13:36;1.40;;;1.30;;
3865;SDS011;1948;53.250;10.412;2023-08-21T12:16:05;3.20;;;1.47;;
3865;SDS011;1948;53.250;10.412;2023-08-21T12:18:33;2.10;;;1.20;;
3865;SDS011;1948;53.250;10.412;2023-08-21T12:21:02;6.53;;;1.67;;
3865;SDS011;1948;53.250;10.412;2023-08-21T12:23:34;1.47;;;1.30;;
3865;SDS011;1948;53.250;10.412;2023-08-21T12:26:01;2.07;;;1.50;;
3865;SDS011;1948;53.250;10.412;2023-08-21T12:28:28;5.33;;;1.40;;
3865;SDS011;1948;53.250;10.412;2023-08-21T12:30:55;6.57;;;1.37;;
3865;SDS011;1948;53.250;10.412;2023-08-21T12:33:23;3.53;;;1.80;;
3865;SDS011;1948;53.250;10.412;2023-08-21T12:35:50;1.57;;;1.30;;
3865;SDS011;1948;53.250;10.412;2023-08-21T12:38:18;1.30;;;1.20;;
3865;SDS011;1948;53.250;10.412;2023-08-21T12:40:47;5.40;;;1.20;;
3865;SDS011;1948;53.250;10.412;2023-08-21T12:43:18;3.90;;;1.70;;
3865;SDS011;1948;53.250;10.412;2023-08-21T12:45:45;3.87;;;1.53;;
3865;SDS011;1948;53.250;10.412;2023-08-21T12:48:12;3.87;;;0.90;;
3865;SDS011;1948;53.250;10.412;2023-08-21T12:50:41;1.20;;;1.00;;
3865;SDS011;1948;53.250;10.412;2023-08-21T12:53:08;1.67;;;1.57;;
3865;SDS011;1948;53.250;10.412;2023-08-21T12:55:37;1.47;;;1.10;;
3865;SDS011;1948;53.250;10.412;2023-08-21T12:58:05;2.60;;;1.30;;
3865;SDS011;1948;53.250;10.412;2023-08-21T13:00:32;1.63;;;1.10;;
3865;SDS011;1948;53.250;10.412;2023-08-21T13:03:00;2.87;;;1.67;;
3865;SDS011;1948;53.250;10.412;2023-08-21T13:05:30;1.90;;;1.80;;
3865;SDS011;1948;53.250;10.412;2023-08-21T13:07:58;1.20;;;1.20;;
3865;SDS011;1948;53.250;10.412;2023-08-21T13:10:28;5.20;;;1.20;;
3865;SDS011;1948;53.250;10.412;2023-08-21T13:12:55;2.20;;;1.30;;
3865;SDS011;1948;53.250;10.412;2023-08-21T13:15:27;1.80;;;1.30;;
3865;SDS011;1948;53.250;10.412;2023-08-21T13:17:55;1.10;;;1.10;;
3865;SDS011;1948;53.250;10.412;2023-08-21T13:20:24;1.10;;;1.10;;
3865;SDS011;1948;53.250;10.412;2023-08-21T13:22:51;1.70;;;1.60;;
3865;SDS011;1948;53.250;10.412;2023-08-21T13:25:19;3.13;;;1.87;;
3865;SDS011;1948;53.250;10.412;2023-08-21T13:27:50;3.60;;;1.70;;
3865;SDS011;1948;53.250;10.412;2023-08-21T13:30:18;1.80;;;1.70;;
3865;SDS011;1948;53.250;10.412;2023-08-21T13:32:48;2.23;;;2.07;;
3865;SDS011;1948;53.250;10.412;2023-08-21T13:35:16;1.53;;;1.43;;
3865;SDS011;1948;53.250;10.412;2023-08-21T13:37:44;1.07;;;1.07;;
3865;SDS011;1948;53.250;10.412;2023-08-21T13:40:11;6.00;;;1.73;;
3865;SDS011;1948;53.250;10.412;2023-08-21T13:42:40;3.03;;;1.70;;
3865;SDS011;1948;53.250;10.412;2023-08-21T13:45:10;4.23;;;2.03;;
3865;SDS011;1948;53.250;10.412;2023-08-21T13:47:42;6.53;;;1.27;;
3865;SDS011;1948;53.250;10.412;2023-08-21T13:50:18;1.90;;;1.80;;
3865;SDS011;1948;53.250;10.412;2023-08-21T13:52:46;2.10;;;1.60;;
3865;SDS011;1948;53.250;10.412;2023-08-21T13:55:17;1.63;;;1.53;;
3865;SDS011;1948;53.250;10.412;2023-08-21T13:57:44;3.03;;;1.33;;
3865;SDS011;1948;53.250;10.412;2023-08-21T14:00:12;1.53;;;1.43;;
3865;SDS011;1948;53.250;10.412;2023-08-21T14:02:40;2.30;;;1.83;;
3865;SDS011;1948;53.250;10.412;2023-08-21T14:05:09;1.83;;;1.73;;
3865;SDS011;1948;53.250;10.412;2023-08-21T14:07:39;2.90;;;1.70;;
3865;SDS011;1948;53.250;10.412;2023-08-21T14:10:07;3.40;;;1.47;;
3865;SDS011;1948;53.250;10.412;2023-08-21T14:12:40;1.63;;;1.53;;
3865;SDS011;1948;53.250;10.412;2023-08-21T14:15:08;1.20;;;1.20;;
3865;SDS011;1948;53.250;10.412;2023-08-21T14:17:36;1.90;;;1.80;;
3865;SDS011;1948;53.250;10.412;2023-08-21T14:20:05;2.40;;;1.73;;
3865;SDS011;1948;53.250;10.412;2023-08-21T14:22:33;10.10;;;1.70;;
3865;SDS011;1948;53.250;10.412;2023-08-21T14:25:01;4.23;;;1.40;;
3865;SDS011;1948;53.250;10.412;2023-08-21T14:27:31;1.80;;;1.70;;
3865;SDS011;1948;53.250;10.412;2023-08-21T14:30:02;4.83;;;1.77;;
3865;SDS011;1948;53.250;10.412;2023-08-21T14:32:32;1.53;;;1.43;;
3865;SDS011;1948;53.250;10.412;2023-08-21T14:35:03;2.00;;;1.50;;
3865;SDS011;1948;53.250;10.412;2023-08-21T14:37:35;1.87;;;1.40;;
3865;SDS011;1948;53.250;10.412;2023-08-21T14:40:04;4.20;;;1.53;;
3865;SDS011;1948;53.250;10.412;2023-08-21T14:42:34;2.60;;;1.47;;
3865;SDS011;1948;53.250;10.412;2023-08-21T14:45:03;16.73;;;1.97;;
3865;SDS011;1948;53.250;10.412;2023-08-21T14:47:34;1.50;;;1.40;;
3865;SDS011;1948;53.250;10.412;2023-08-21T14:50:04;4.43;;;1.90;;
3865;SDS011;1948;53.250;10.412;2023-08-21T14:52:34;2.03;;;1.53;;
3865;SDS011;1948;53.250;10.412;2023-08-21T14:55:04;1.47;;;1.43;;
3865;SDS011;1948;53.250;10.412;2023-08-21T14:57:34;1.93;;;1.70;;
3865;SDS011;1948;53.250;10.412;2023-08-21T15:00:02;4.57;;;1.63;;
3865;SDS011;1948;53.250;10.412;2023-08-21T15:02:30;4.23;;;2.23;;
3865;SDS011;1948;53.250;10.412;2023-08-21T15:05:01;10.47;;;2.40;;
3865;SDS011;1948;53.250;10.412;2023-08-21T15:07:32;3.47;;;1.63;;
3865;SDS011;1948;53.250;10.412;2023-08-21T15:09:59;1.70;;;1.60;;
3865;SDS011;1948;53.250;10.412;2023-08-21T15:12:29;3.40;;;1.37;;
3865;SDS011;1948;53.250;10.412;2023-08-21T15:14:57;5.43;;;2.53;;
3865;SDS011;1948;53.250;10.412;2023-08-21T15:17:24;5.03;;;2.20;;
3865;SDS011;1948;53.250;10.412;2023-08-21T15:19:52;1.77;;;1.67;;
3865;SDS011;1948;53.250;10.412;2023-08-21T15:22:20;2.90;;;2.40;;
3865;SDS011;1948;53.250;10.412;2023-08-21T15:24:52;3.87;;;1.90;;
3865;SDS011;1948;53.250;10.412;2023-08-21T15:27:19;3.37;;;1.83;;
3865;SDS011;1948;53.250;10.412;2023-08-21T15:29:46;3.43;;;1.67;;
3865;SDS011;1948;53.250;10.412;2023-08-21T15:32:14;2.10;;;1.90;;